Time;durP1;ratioP1;P1;durP2;ratioP2;P2;SDS_P1;SDS_P2;PMS_P1;PMS_P2;Temp;Humidity;BMP_temperature;BMP_pressure;BME280_temperature;BME280_humidity;BME280_pressure;Samples;Min_cycle;Max_cycle;Signal;HPM_P1;HPM_P2
2021/08/27 00:00:33;;;;;;;57.97;2.60;;;12.80;1.00;;;;;;5072635;28;20884;-71
2021/08/27 00:03:01;;;;;;;58.17;2.60;;;12.90;1.00;;;;;;5072746;28;20578;-71
2021/08/27 00:05:28;;;;;;;58.37;2.80;;;12.90;1.00;;;;;;5072863;28;20987;-71
2021/08/27 00:07:55;;;;;;;58.17;2.70;;;12.90;1.00;;;;;;5072620;28;20522;-71
2021/08/27 00:10:22;;;;;;;58.20;2.70;;;12.90;1.00;;;;;;5072358;28;21085;-71
2021/08/27 00:12:50;;;;;;;58.20;2.70;;;13.00;1.00;;;;;;5072714;28;20547;-71
2021/08/27 00:15:17;;;;;;;58.23;2.47;;;13.00;1.00;;;;;;5072760;28;20692;-71
2021/08/27 00:17:44;;;;;;;57.87;2.80;;;13.00;1.00;;;;;;5072511;28;20880;-71
2021/08/27 00:20:13;;;;;;;58.13;2.70;;;13.00;1.00;;;;;;5072419;28;20888;-71
2021/08/27 00:22:40;;;;;;;58.07;2.60;;;13.10;1.00;;;;;;5072606;28;20462;-71
2021/08/27 00:25:08;;;;;;;58.30;2.90;;;13.10;1.00;;;;;;5072605;28;20931;-71
2021/08/27 00:27:36;;;;;;;57.97;2.60;;;13.10;1.00;;;;;;5072211;28;20535;-71
2021/08/27 00:30:03;;;;;;;58.37;2.57;;;13.20;1.00;;;;;;5072290;28;20570;-71
2021/08/27 00:32:30;;;;;;;58.17;2.73;;;13.30;1.00;;;;;;5072714;28;20549;-71
2021/08/27 00:34:57;;;;;;;60.20;3.30;;;13.30;1.00;;;;;;5072250;28;20479;-71
2021/08/27 00:37:25;;;;;;;58.17;2.47;;;13.30;1.00;;;;;;5072055;28;21034;-71
2021/08/27 00:39:52;;;;;;;58.23;2.50;;;13.30;1.00;;;;;;5072081;28;20455;-72
2021/08/27 00:42:19;;;;;;;58.17;2.40;;;13.40;1.00;;;;;;5072211;28;20473;-71
2021/08/27 00:44:46;;;;;;;58.00;2.60;;;13.40;1.00;;;;;;5072216;28;20534;-71
2021/08/27 00:47:13;;;;;;;58.33;2.50;;;13.40;1.00;;;;;;5072006;28;20526;-71
2021/08/27 00:49:40;;;;;;;58.27;2.50;;;13.50;1.00;;;;;;5071696;28;20591;-71
2021/08/27 00:52:09;;;;;;;59.00;2.50;;;13.50;1.00;;;;;;5071897;28;20471;-71
2021/08/27 00:54:38;;;;;;;57.67;2.50;;;13.50;1.00;;;;;;5071484;28;20965;-72
2021/08/27 00:57:07;;;;;;;58.17;2.70;;;13.50;1.00;;;;;;5071921;28;20454;-71
2021/08/27 00:59:35;;;;;;;58.27;2.93;;;13.60;1.00;;;;;;5071627;28;20850;-71
2021/08/27 01:02:02;;;;;;;58.10;2.50;;;13.50;1.00;;;;;;5072201;28;20906;-71
2021/08/27 01:04:30;;;;;;;58.17;2.30;;;13.60;1.00;;;;;;5071917;28;21005;-71
2021/08/27 01:07:02;;;;;;;58.07;2.40;;;13.60;1.00;;;;;;5071874;28;20482;-71
2021/08/27 01:09:35;;;;;;;58.17;2.40;;;13.60;1.00;;;;;;5071821;28;20479;-71
2021/08/27 01:12:08;;;;;;;58.97;2.90;;;13.60;1.00;;;;;;5071685;28;20558;-71
2021/08/27 01:14:40;;;;;;;58.33;2.30;;;13.60;1.00;;;;;;5072072;28;20537;-71
2021/08/27 01:17:12;;;;;;;58.03;2.50;;;13.60;1.00;;;;;;5071703;28;20538;-71
2021/08/27 01:20:02;;;;;;;58.07;2.47;;;13.60;1.00;;;;;;5071552;28;20447;-71
2021/08/27 01:22:44;;;;;;;58.03;2.50;;;13.60;1.00;;;;;;5071632;28;20558;-71
2021/08/27 01:25:14;;;;;;;58.67;2.87;;;13.60;1.00;;;;;;5071746;28;20474;-71
2021/08/27 01:27:44;;;;;;;58.80;2.90;;;13.60;1.00;;;;;;5071743;28;20522;-72
2021/08/27 01:30:15;;;;;;;58.57;2.80;;;13.60;1.00;;;;;;5071488;28;20485;-71
2021/08/27 01:32:48;;;;;;;58.03;2.47;;;13.60;1.00;;;;;;5071654;28;20839;-71
2021/08/27 01:35:17;;;;;;;58.00;2.40;;;13.60;1.00;;;;;;5071558;28;20482;-71
2021/08/27 01:37:48;;;;;;;58.20;2.70;;;13.60;1.00;;;;;;5071683;28;20537;-71
2021/08/27 01:40:16;;;;;;;58.13;2.50;;;13.60;1.00;;;;;;5071271;28;20969;-71
2021/08/27 01:42:47;;;;;;;58.30;2.73;;;13.60;1.00;;;;;;5071423;28;20469;-71
2021/08/27 01:45:14;;;;;;;58.20;2.40;;;13.60;1.00;;;;;;5070153;28;20457;-71
2021/08/27 01:47:43;;;;;;;58.10;2.63;;;13.60;1.00;;;;;;5071352;28;20454;-72
2021/08/27 01:50:11;;;;;;;58.07;2.60;;;13.60;1.00;;;;;;5071017;28;21069;-71
2021/08/27 01:52:41;;;;;;;58.30;2.70;;;13.60;1.00;;;;;;5071474;28;20544;-71
2021/08/27 01:55:09;;;;;;;58.17;2.70;;;13.60;1.00;;;;;;5071442;28;20871;-71
2021/08/27 01:57:38;;;;;;;58.37;2.60;;;13.60;1.00;;;;;;5071707;28;20443;-71
2021/08/27 02:00:07;;;;;;;59.17;4.00;;;13.60;1.00;;;;;;5071356;28;20469;-71
2021/08/27 02:02:35;;;;;;;58.03;2.60;;;13.60;1.00;;;;;;5071404;28;20471;-71
2021/08/27 02:05:04;;;;;;;58.17;2.60;;;13.60;1.00;;;;;;5071172;28;20454;-71
2021/08/27 02:07:31;;;;;;;58.60;3.73;;;13.60;1.00;;;;;;5074524;28;20453;-71
2021/08/27 02:10:01;;;;;;;60.40;2.93;;;13.60;1.00;;;;;;5074687;28;20843;-71
2021/08/27 02:12:28;;;;;;;57.97;2.50;;;13.60;1.00;;;;;;5075402;28;20463;-71
2021/08/27 02:14:57;;;;;;;58.40;2.90;;;13.60;1.00;;;;;;5075178;28;20454;-70
2021/08/27 02:17:25;;;;;;;58.40;2.90;;;13.60;1.00;;;;;;5074938;28;20479;-71
2021/08/27 02:19:52;;;;;;;58.20;2.60;;;13.60;1.00;;;;;;5074590;28;20443;-71
2021/08/27 02:22:21;;;;;;;57.97;2.60;;;13.60;1.00;;;;;;5074774;28;20549;-71
2021/08/27 02:24:54;;;;;;;58.03;2.70;;;13.60;1.00;;;;;;5074718;28;20486;-70
2021/08/27 02:27:23;;;;;;;59.47;4.30;;;13.60;1.00;;;;;;5074999;28;20454;-70
2021/08/27 02:29:53;;;;;;;58.17;2.50;;;13.60;1.00;;;;;;5074451;28;20479;-72
2021/08/27 02:32:21;;;;;;;58.17;2.53;;;13.50;1.00;;;;;;5074590;28;21033;-71
2021/08/27 02:34:50;;;;;;;58.30;2.70;;;13.50;1.00;;;;;;5074657;28;20446;-70
2021/08/27 02:37:20;;;;;;;58.37;3.17;;;13.50;1.00;;;;;;5074437;28;20537;-70
2021/08/27 02:39:47;;;;;;;58.27;2.90;;;13.50;1.00;;;;;;5074601;28;20453;-70
2021/08/27 02:42:16;;;;;;;58.47;3.23;;;13.50;1.00;;;;;;5074318;28;20466;-70
2021/08/27 02:44:44;;;;;;;58.13;2.80;;;13.40;1.00;;;;;;5074547;28;20522;-70
2021/08/27 02:47:11;;;;;;;57.93;2.63;;;13.40;1.00;;;;;;5074236;28;20538;-71
2021/08/27 02:49:38;;;;;;;57.97;2.70;;;13.40;1.00;;;;;;5073853;28;20525;-71
2021/08/27 02:52:13;;;;;;;58.13;3.00;;;13.40;1.00;;;;;;5074438;28;20503;-71
2021/08/27 02:54:50;;;;;;;58.57;3.23;;;13.40;1.00;;;;;;5074415;28;20521;-71
2021/08/27 02:57:18;;;;;;;58.20;2.77;;;13.40;1.00;;;;;;5074187;28;20442;-70
2021/08/27 02:59:49;;;;;;;58.20;2.87;;;13.30;1.00;;;;;;5073958;28;20500;-70
2021/08/27 03:02:16;;;;;;;58.37;2.60;;;13.30;1.00;;;;;;5074439;28;20554;-70
2021/08/27 03:04:53;;;;;;;58.27;3.00;;;13.30;1.00;;;;;;5073935;28;20991;-70
2021/08/27 03:07:23;;;;;;;58.20;2.77;;;13.30;1.00;;;;;;5073933;28;20451;-70
2021/08/27 03:09:58;;;;;;;58.10;2.53;;;13.30;1.00;;;;;;5073750;28;20489;-70
2021/08/27 03:12:34;;;;;;;58.17;2.57;;;13.30;1.00;;;;;;5073907;28;20557;-70
2021/08/27 03:15:03;;;;;;;58.37;2.70;;;13.30;1.00;;;;;;5074205;28;20450;-70
2021/08/27 03:17:37;;;;;;;58.33;2.90;;;13.30;1.00;;;;;;5073533;28;20886;-70
2021/08/27 03:20:10;;;;;;;58.37;2.70;;;13.30;1.00;;;;;;5073532;28;20475;-70
2021/08/27 03:22:43;;;;;;;58.20;2.57;;;13.20;1.00;;;;;;5073645;28;21002;-70
2021/08/27 03:25:11;;;;;;;58.27;2.50;;;13.30;1.00;;;;;;5074133;28;20479;-70
2021/08/27 03:27:43;;;;;;;58.33;2.60;;;13.20;1.00;;;;;;5073834;28;20454;-71
2021/08/27 03:30:16;;;;;;;58.13;2.63;;;13.30;1.00;;;;;;5073451;28;20489;-70
2021/08/27 03:32:46;;;;;;;58.10;2.80;;;13.20;1.00;;;;;;5073470;28;20463;-70
2021/08/27 03:35:14;;;;;;;58.23;2.90;;;13.20;1.00;;;;;;5073484;28;20963;-70
2021/08/27 03:37:42;;;;;;;58.13;2.60;;;13.20;1.00;;;;;;5073322;28;20822;-70
2021/08/27 03:40:11;;;;;;;58.07;2.80;;;13.20;1.00;;;;;;5073107;28;20443;-70
2021/08/27 03:42:39;;;;;;;58.37;2.60;;;13.20;1.00;;;;;;5073380;28;20465;-70
2021/08/27 03:45:08;;;;;;;58.50;2.90;;;13.10;1.00;;;;;;5073390;28;20451;-70
2021/08/27 03:47:39;;;;;;;58.90;3.00;;;13.10;1.00;;;;;;5073159;28;20534;-70
2021/08/27 03:50:08;;;;;;;58.40;2.90;;;13.20;1.00;;;;;;5072981;28;20478;-70
2021/08/27 03:52:36;;;;;;;62.87;3.70;;;13.20;1.00;;;;;;5073201;28;20467;-70
2021/08/27 03:55:04;;;;;;;58.07;2.60;;;13.20;1.00;;;;;;5073251;28;20443;-70
2021/08/27 03:57:31;;;;;;;58.27;2.90;;;13.20;1.00;;;;;;5073145;28;20955;-70
2021/08/27 03:59:59;;;;;;;58.37;3.00;;;13.20;1.00;;;;;;5072710;28;20726;-70
2021/08/27 04:02:27;;;;;;;58.07;2.53;;;13.20;1.00;;;;;;5072905;28;20913;-70
2021/08/27 04:05:12;;;;;;;58.13;3.00;;;13.20;1.00;;;;;;5072784;28;20959;-70
2021/08/27 04:07:39;;;;;;;58.07;2.50;;;13.20;1.00;;;;;;5073199;28;20462;-71
2021/08/27 04:10:08;;;;;;;58.23;2.60;;;13.30;1.00;;;;;;5072367;28;21054;-70
2021/08/27 04:12:36;;;;;;;58.47;2.83;;;13.30;1.00;;;;;;5072855;28;20547;-70
2021/08/27 04:15:03;;;;;;;58.27;2.70;;;13.30;1.00;;;;;;5072781;28;20796;-71
2021/08/27 04:17:30;;;;;;;57.97;2.50;;;13.30;1.00;;;;;;5073060;28;20827;-70
2021/08/27 04:19:57;;;;;;;58.40;2.77;;;13.30;1.00;;;;;;5072647;28;20490;-71
2021/08/27 04:22:26;;;;;;;58.17;2.60;;;13.40;1.00;;;;;;5072728;28;20554;-70
2021/08/27 04:24:52;;;;;;;58.90;3.10;;;13.40;1.00;;;;;;5072567;28;20486;-70
2021/08/27 04:27:19;;;;;;;58.23;2.57;;;13.30;1.00;;;;;;5072712;28;21006;-71
2021/08/27 04:29:46;;;;;;;58.17;2.60;;;13.30;1.00;;;;;;5071500;28;20823;-70
2021/08/27 04:32:13;;;;;;;58.30;2.70;;;13.30;1.00;;;;;;5072245;28;20574;-70
2021/08/27 04:34:40;;;;;;;58.07;2.80;;;13.30;1.00;;;;;;5072287;28;20489;-70
2021/08/27 04:37:07;;;;;;;57.67;2.70;;;13.30;1.00;;;;;;5072349;28;20534;-70
2021/08/27 04:39:35;;;;;;;58.30;2.50;;;13.30;1.00;;;;;;5072285;28;20650;-70
2021/08/27 04:42:02;;;;;;;58.30;2.80;;;13.30;1.00;;;;;;5072117;28;20554;-71
2021/08/27 04:44:29;;;;;;;58.07;2.50;;;13.40;1.00;;;;;;5072156;28;20533;-70
2021/08/27 04:46:56;;;;;;;58.03;2.63;;;13.40;1.00;;;;;;5072006;28;20474;-71
2021/08/27 04:49:23;;;;;;;58.07;2.70;;;13.40;1.00;;;;;;5071909;28;20453;-70
2021/08/27 04:51:50;;;;;;;58.17;2.90;;;13.40;1.00;;;;;;5071903;28;20487;-71
2021/08/27 04:54:17;;;;;;;58.10;2.70;;;13.40;1.00;;;;;;5072224;28;20451;-70
2021/08/27 04:56:45;;;;;;;58.17;2.50;;;13.40;1.00;;;;;;5071788;28;20534;-70
2021/08/27 04:59:12;;;;;;;58.30;2.70;;;13.40;1.00;;;;;;5071935;28;20538;-71
2021/08/27 05:01:39;;;;;;;58.47;2.87;;;13.40;1.00;;;;;;5072051;28;20450;-70
2021/08/27 05:04:06;;;;;;;58.60;3.47;;;13.40;1.00;;;;;;5071816;28;20982;-70
2021/08/27 05:06:32;;;;;;;58.27;2.70;;;13.40;1.00;;;;;;5071891;28;20486;-71
2021/08/27 05:08:59;;;;;;;58.47;3.20;;;13.50;1.00;;;;;;5071780;28;20490;-70
2021/08/27 05:11:26;;;;;;;58.97;3.10;;;13.50;1.00;;;;;;5071922;28;20497;-70
2021/08/27 05:13:54;;;;;;;58.17;2.80;;;13.50;1.00;;;;;;5072007;28;20530;-71
2021/08/27 05:16:21;;;;;;;59.50;3.40;;;13.60;1.00;;;;;;5072100;28;20477;-70
2021/08/27 05:18:48;;;;;;;58.00;2.70;;;13.60;1.00;;;;;;5071920;28;20535;-70
2021/08/27 05:21:16;;;;;;;58.03;2.60;;;13.60;1.00;;;;;;5071682;28;20867;-71
2021/08/27 05:23:43;;;;;;;58.10;2.60;;;13.70;1.00;;;;;;5071723;28;20520;-70
2021/08/27 05:26:10;;;;;;;59.23;3.67;;;13.70;1.00;;;;;;5071847;28;20540;-70
2021/08/27 05:28:36;;;;;;;58.30;3.10;;;13.80;1.00;;;;;;5071851;28;20909;-70
2021/08/27 05:31:05;;;;;;;58.30;2.80;;;13.80;1.00;;;;;;5071367;28;20521;-71
2021/08/27 05:33:31;;;;;;;58.00;2.80;;;13.90;1.00;;;;;;5071739;28;21013;-71
2021/08/27 05:35:58;;;;;;;57.93;2.70;;;13.90;1.00;;;;;;5071532;28;20443;-70
2021/08/27 05:38:25;;;;;;;58.27;3.00;;;13.90;1.00;;;;;;5071530;28;20537;-71
2021/08/27 05:40:52;;;;;;;58.17;2.60;;;13.80;1.00;;;;;;5073997;28;20447;-70
2021/08/27 05:43:19;;;;;;;58.17;2.77;;;13.90;1.00;;;;;;5075540;28;20474;-70
2021/08/27 05:45:46;;;;;;;58.27;2.70;;;13.90;1.00;;;;;;5075643;28;20474;-71
2021/08/27 05:48:14;;;;;;;58.17;2.70;;;14.00;1.00;;;;;;5075654;28;20453;-71
2021/08/27 05:50:41;;;;;;;58.07;2.60;;;14.20;1.00;;;;;;5075265;28;20486;-71
2021/08/27 05:53:08;;;;;;;58.03;2.80;;;14.30;1.00;;;;;;5075529;28;20464;-71
2021/08/27 05:55:35;;;;;;;58.37;2.70;;;14.50;1.00;;;;;;5075585;28;20796;-71
2021/08/27 05:58:02;;;;;;;58.07;2.70;;;14.50;1.00;;;;;;5075298;28;20547;-71
2021/08/27 06:00:29;;;;;;;58.70;3.10;;;14.50;1.00;;;;;;5075044;28;20542;-71
2021/08/27 06:02:56;;;;;;;58.60;3.13;;;14.40;1.00;;;;;;5075070;28;21165;-71
2021/08/27 06:05:24;;;;;;;58.63;3.20;;;14.40;1.00;;;;;;5075650;28;20480;-71
2021/08/27 06:07:51;;;;;;;58.70;3.00;;;14.50;1.00;;;;;;5075236;28;20521;-69
2021/08/27 06:10:18;;;;;;;58.00;2.80;;;14.50;1.00;;;;;;5075039;28;20752;-70
2021/08/27 06:12:44;;;;;;;58.23;2.70;;;14.50;1.00;;;;;;5075021;28;20570;-71
2021/08/27 06:15:13;;;;;;;57.93;2.60;;;14.60;1.00;;;;;;5075076;28;20541;-70
2021/08/27 06:17:40;;;;;;;58.30;2.80;;;14.60;1.00;;;;;;5074905;28;20982;-70
2021/08/27 06:20:08;;;;;;;58.30;3.17;;;14.60;1.00;;;;;;5074473;28;20534;-70
2021/08/27 06:22:38;;;;;;;58.50;2.70;;;14.60;1.00;;;;;;5074708;28;20971;-71
2021/08/27 06:25:06;;;;;;;58.13;2.60;;;14.60;1.00;;;;;;5074671;28;20451;-71
2021/08/27 06:27:33;;;;;;;58.40;3.00;;;14.50;1.00;;;;;;5074790;28;20813;-71
2021/08/27 06:30:00;;;;;;;58.17;2.40;;;14.60;1.00;;;;;;5074484;28;20450;-71
2021/08/27 06:32:27;;;;;;;57.97;2.50;;;14.70;1.00;;;;;;5074604;28;20482;-71
2021/08/27 06:34:55;;;;;;;57.70;2.70;;;14.90;1.00;;;;;;5074913;28;20454;-72
2021/08/27 06:38:19;;;;;;;57.97;2.80;;;14.90;1.00;;;;;;5074709;28;20816;-71
2021/08/27 06:40:11;;;;;;;58.10;2.50;;;15.00;1.00;;;;;;5074048;28;20453;-70
2021/08/27 06:42:38;;;;;;;58.20;2.60;;;15.10;1.00;;;;;;5074369;28;20546;-71
2021/08/27 06:45:06;;;;;;;58.00;2.60;;;15.10;1.00;;;;;;5074338;28;20542;-72
2021/08/27 06:47:33;;;;;;;58.00;3.37;;;15.00;1.00;;;;;;5074568;28;20530;-71
2021/08/27 06:50:00;;;;;;;58.03;2.57;;;14.90;1.00;;;;;;5074264;28;20529;-71
2021/08/27 06:52:27;;;;;;;58.07;2.73;;;14.90;1.00;;;;;;5073395;28;21091;-71
2021/08/27 06:54:54;;;;;;;58.13;3.10;;;14.80;1.00;;;;;;5074334;28;20457;-71
2021/08/27 06:57:22;;;;;;;58.00;2.90;;;14.90;1.00;;;;;;5074112;28;20569;-71
2021/08/27 06:59:49;;;;;;;58.80;2.70;;;15.10;1.00;;;;;;5073809;28;21039;-71
2021/08/27 07:02:16;;;;;;;57.87;2.50;;;15.30;1.00;;;;;;5074157;28;20550;-71
2021/08/27 07:04:43;;;;;;;57.83;2.50;;;15.50;1.00;;;;;;5074173;28;20834;-70
2021/08/27 07:07:10;;;;;;;57.87;2.70;;;15.60;1.00;;;;;;5074124;28;20530;-71
2021/08/27 07:09:36;;;;;;;58.00;2.50;;;15.60;1.00;;;;;;5073782;28;20531;-71
2021/08/27 07:12:04;;;;;;;58.17;2.70;;;15.60;1.00;;;;;;5073715;28;20494;-71
2021/08/27 07:14:32;;;;;;;58.07;2.70;;;15.40;1.00;;;;;;5074251;28;20530;-71
2021/08/27 07:16:59;;;;;;;57.97;2.50;;;15.20;1.00;;;;;;5074055;28;20456;-71
2021/08/27 07:19:26;;;;;;;57.90;2.57;;;15.10;1.00;;;;;;5073579;28;20459;-71
2021/08/27 07:21:53;;;;;;;57.97;3.13;;;15.00;1.00;;;;;;5073884;28;20550;-70
2021/08/27 07:24:20;;;;;;;57.87;2.50;;;15.00;1.00;;;;;;5073773;28;20890;-71
2021/08/27 07:26:47;;;;;;;58.37;2.80;;;15.10;1.00;;;;;;5073588;28;21017;-71
2021/08/27 07:29:13;;;;;;;58.00;2.50;;;15.20;1.00;;;;;;5073500;28;20543;-71
2021/08/27 07:31:42;;;;;;;58.30;2.70;;;15.20;1.00;;;;;;5073411;28;20577;-71
2021/08/27 07:34:09;;;;;;;57.77;2.80;;;15.30;1.00;;;;;;5073595;28;20488;-71
2021/08/27 07:36:36;;;;;;;58.10;2.80;;;15.50;1.00;;;;;;5073647;28;20452;-71
2021/08/27 07:39:03;;;;;;;58.30;3.03;;;15.70;1.00;;;;;;5073239;28;20492;-71
2021/08/27 07:41:30;;;;;;;58.20;2.60;;;15.90;1.00;;;;;;5073088;28;20761;-71
2021/08/27 07:43:57;;;;;;;58.03;2.90;;;16.10;1.00;;;;;;5073695;28;20454;-68
2021/08/27 07:46:24;;;;;;;58.20;2.50;;;16.20;1.00;;;;;;5073351;28;20533;-71
2021/08/27 07:48:52;;;;;;;58.00;2.40;;;16.30;1.00;;;;;;5073282;28;20551;-68
2021/08/27 07:51:19;;;;;;;57.77;2.50;;;16.50;1.00;;;;;;5072967;28;20496;-68
2021/08/27 07:53:46;;;;;;;57.67;2.47;;;16.80;1.00;;;;;;5073024;28;20477;-70
2021/08/27 07:56:13;;;;;;;57.90;2.40;;;17.10;1.00;;;;;;5073184;28;20536;-70
2021/08/27 07:58:40;;;;;;;58.03;2.40;;;17.30;1.00;;;;;;5073186;28;20445;-70
2021/08/27 08:01:07;;;;;;;58.20;2.40;;;17.40;1.00;;;;;;5072856;28;20980;-70
2021/08/27 08:03:34;;;;;;;58.13;2.70;;;17.30;1.00;;;;;;5073022;28;20517;-70
2021/08/27 08:06:02;;;;;;;58.10;2.70;;;17.20;1.00;;;;;;5072919;28;20452;-69
2021/08/27 08:08:29;;;;;;;57.70;2.33;;;17.00;1.00;;;;;;5072689;28;20462;-70
2021/08/27 08:10:56;;;;;;;57.77;2.30;;;16.80;1.00;;;;;;5072764;28;20538;-70
2021/08/27 08:13:23;;;;;;;57.77;2.30;;;16.60;1.00;;;;;;5072892;28;20581;-70
2021/08/27 08:15:50;;;;;;;58.00;2.40;;;16.30;1.00;;;;;;5072687;28;20544;-70
2021/08/27 08:18:16;;;;;;;57.87;2.40;;;16.20;1.00;;;;;;5072747;28;20536;-70
2021/08/27 08:20:44;;;;;;;57.67;2.50;;;16.10;1.00;;;;;;5072793;28;20539;-70
2021/08/27 08:23:12;;;;;;;57.97;2.20;;;16.30;1.00;;;;;;5072639;28;20479;-70
2021/08/27 08:25:39;;;;;;;58.27;2.40;;;16.60;1.00;;;;;;5072604;28;20444;-70
2021/08/27 08:28:06;;;;;;;57.67;2.47;;;16.90;1.00;;;;;;5072390;28;20449;-71
2021/08/27 08:30:33;;;;;;;57.87;2.90;;;17.20;1.00;;;;;;5072274;28;20461;-70
2021/08/27 08:33:00;;;;;;;58.13;2.60;;;17.30;1.00;;;;;;5072386;28;20568;-70
2021/08/27 08:35:27;;;;;;;58.00;2.50;;;17.30;1.00;;;;;;5072718;28;20532;-70
2021/08/27 08:37:54;;;;;;;57.97;2.70;;;17.40;1.00;;;;;;5072498;28;20885;-71
2021/08/27 08:40:22;;;;;;;58.27;2.40;;;17.70;1.00;;;;;;5072076;28;21032;-71
2021/08/27 08:42:49;;;;;;;57.87;2.43;;;17.90;1.00;;;;;;5072375;28;20480;-70
2021/08/27 08:45:16;;;;;;;57.83;2.60;;;17.90;1.00;;;;;;5072273;28;20454;-70
2021/08/27 08:47:45;;;;;;;57.87;2.60;;;17.80;1.00;;;;;;5072294;28;20533;-70
2021/08/27 08:50:12;;;;;;;58.03;2.30;;;17.80;1.00;;;;;;5072347;28;20458;-70
2021/08/27 08:52:42;;;;;;;57.57;2.50;;;17.90;1.00;;;;;;5072014;28;20517;-70
2021/08/27 08:55:09;;;;;;;57.80;2.40;;;17.90;1.00;;;;;;5072346;28;20454;-70
2021/08/27 08:57:38;;;;;;;57.47;2.40;;;18.00;1.00;;;;;;5072373;28;20926;-70
2021/08/27 09:00:06;;;;;;;57.57;2.40;;;18.00;1.00;;;;;;5071974;28;20482;-70
2021/08/27 09:02:32;;;;;;;58.13;2.40;;;17.90;1.00;;;;;;5071899;28;21000;-71
2021/08/27 09:04:59;;;;;;;57.87;2.40;;;17.80;1.00;;;;;;5072047;28;20548;-70
2021/08/27 09:07:26;;;;;;;57.87;2.90;;;17.70;1.00;;;;;;5072334;28;20551;-71
2021/08/27 09:09:53;;;;;;;58.20;2.50;;;17.60;1.00;;;;;;5071858;28;20535;-70
2021/08/27 09:12:22;;;;;;;57.83;2.70;;;17.50;1.00;;;;;;5072027;28;20486;-70
2021/08/27 09:15:02;;;;;;;58.30;2.90;;;17.50;1.00;;;;;;5071452;28;20461;-70
2021/08/27 09:17:31;;;;;;;57.40;2.40;;;17.80;1.00;;;;;;5072144;28;20461;-71
2021/08/27 09:19:58;;;;;;;57.73;2.33;;;18.20;1.00;;;;;;5072092;28;20537;-70
2021/08/27 09:22:25;;;;;;;57.93;2.60;;;18.50;1.00;;;;;;5072116;28;20542;-70
2021/08/27 09:25:06;;;;;;;58.13;2.60;;;18.50;1.00;;;;;;5072197;28;20446;-70
2021/08/27 09:27:35;;;;;;;57.97;2.30;;;18.50;1.00;;;;;;5071593;28;20457;-71
2021/08/27 09:30:10;;;;;;;57.63;2.47;;;18.40;1.00;;;;;;5071821;28;20458;-70
2021/08/27 09:32:37;;;;;;;58.00;2.40;;;18.30;1.00;;;;;;5071614;28;20489;-70
2021/08/27 09:35:14;;;;;;;57.77;2.33;;;18.30;1.00;;;;;;5071695;28;20541;-70
2021/08/27 09:37:43;;;;;;;57.93;2.43;;;18.50;1.00;;;;;;5071619;28;20535;-70
2021/08/27 09:40:12;;;;;;;57.40;2.50;;;18.60;1.00;;;;;;5071744;28;20534;-71
2021/08/27 09:42:41;;;;;;;57.47;2.30;;;18.70;1.00;;;;;;5071779;28;20758;-70
2021/08/27 09:45:11;;;;;;;57.70;2.10;;;18.90;1.00;;;;;;5071751;28;20530;-71
2021/08/27 09:47:38;;;;;;;57.27;2.20;;;19.30;1.00;;;;;;5071665;28;20447;-71
2021/08/27 09:50:21;;;;;;;57.63;2.10;;;19.70;1.00;;;;;;5071275;28;20533;-71
2021/08/27 09:52:56;;;;;;;57.77;2.10;;;19.90;1.00;;;;;;5071505;28;20570;-71
2021/08/27 09:55:23;;;;;;;57.77;2.50;;;19.70;1.00;;;;;;5071382;28;20493;-71
2021/08/27 09:57:52;;;;;;;57.70;2.37;;;19.40;1.00;;;;;;5071549;28;20458;-71
2021/08/27 10:00:22;;;;;;;58.13;2.37;;;19.20;1.00;;;;;;5071423;28;20451;-71
2021/08/27 10:02:49;;;;;;;57.40;2.30;;;18.90;1.00;;;;;;5071122;28;20459;-71
2021/08/27 10:05:16;;;;;;;58.00;2.50;;;18.70;1.00;;;;;;5071668;28;20455;-70
2021/08/27 10:07:45;;;;;;;57.77;2.10;;;19.00;1.00;;;;;;5071499;28;20470;-71
2021/08/27 10:10:14;;;;;;;58.00;2.40;;;20.00;1.00;;;;;;5071272;28;20798;-70
2021/08/27 10:12:43;;;;;;;57.60;2.33;;;21.60;1.00;;;;;;5071183;28;20998;-71
2021/08/27 10:15:11;;;;;;;57.80;2.30;;;23.40;1.00;;;;;;5071258;28;20545;-71
2021/08/27 10:17:41;;;;;;;57.87;2.20;;;24.70;1.00;;;;;;5071453;28;20944;-70
2021/08/27 10:20:11;;;;;;;57.90;2.20;;;24.70;1.00;;;;;;5071165;28;20451;-71
2021/08/27 10:22:40;;;;;;;58.80;3.73;;;24.20;1.00;;;;;;5071475;28;20463;-69
2021/08/27 10:25:09;;;;;;;57.87;2.27;;;23.80;1.00;;;;;;5071676;28;20500;-68
2021/08/27 10:27:37;;;;;;;57.83;2.13;;;24.60;1.00;;;;;;5073093;28;20933;-68
2021/08/27 10:30:05;;;;;;;57.63;2.30;;;25.90;1.00;;;;;;5074800;28;20479;-69
2021/08/27 10:32:51;;;;;;;57.63;2.23;;;27.20;1.00;;;;;;5074752;28;20530;-71
2021/08/27 10:35:51;;;;;;;57.77;2.10;;;27.30;1.00;;;;;;5075014;28;20529;-71
2021/08/27 10:38:40;;;;;;;57.97;2.40;;;26.40;1.00;;;;;;5012751;28;20857;-71
2021/08/27 10:41:12;;;;;;;57.73;2.20;;;25.10;1.00;;;;;;5070282;28;20459;-72
2021/08/27 10:43:57;;;;;;;57.83;2.30;;;24.00;1.00;;;;;;5074992;28;20483;-71
2021/08/27 10:46:25;;;;;;;57.77;2.30;;;23.10;1.00;;;;;;5074518;28;20450;-71
2021/08/27 10:48:54;;;;;;;58.03;2.33;;;22.50;1.00;;;;;;5074844;28;20443;-70
2021/08/27 10:51:33;;;;;;;58.07;2.40;;;22.10;1.00;;;;;;5074340;28;20530;-71
2021/08/27 10:54:00;;;;;;;58.10;2.70;;;21.70;1.00;;;;;;5074649;28;20482;-71
2021/08/27 10:56:43;;;;;;;57.77;2.40;;;21.50;1.00;;;;;;5074378;28;20541;-70
2021/08/27 10:59:12;;;;;;;57.83;2.33;;;21.30;1.00;;;;;;5073965;28;20873;-71
2021/08/27 11:01:40;;;;;;;57.77;2.27;;;21.10;1.00;;;;;;5074567;28;20869;-70
2021/08/27 11:04:16;;;;;;;58.30;2.60;;;20.70;1.00;;;;;;5074257;28;20947;-70
2021/08/27 11:06:49;;;;;;;57.97;2.50;;;20.30;1.00;;;;;;5074539;28;20552;-70
2021/08/27 11:09:21;;;;;;;57.63;2.60;;;19.80;1.00;;;;;;5074273;28;20450;-70
2021/08/27 11:11:49;;;;;;;58.03;2.50;;;19.40;1.00;;;;;;5074114;28;20476;-70
2021/08/27 11:14:18;;;;;;;58.00;2.60;;;19.10;1.00;;;;;;5074136;28;20483;-71
2021/08/27 11:16:55;;;;;;;57.97;2.77;;;18.70;1.00;;;;;;5074244;28;20545;-71
2021/08/27 11:19:31;;;;;;;58.50;3.40;;;18.50;1.00;;;;;;5073887;28;20455;-70
2021/08/27 11:22:26;;;;;;;57.77;2.60;;;18.20;1.00;;;;;;5073676;28;21005;-70
2021/08/27 11:25:14;;;;;;;60.00;3.63;;;18.10;1.00;;;;;;5074009;28;20477;-70
2021/08/27 11:28:12;;;;;;;58.20;2.40;;;18.00;1.00;;;;;;5073814;28;20530;-69
2021/08/27 11:30:40;;;;;;;58.03;3.13;;;18.00;1.00;;;;;;5073568;28;20450;-70
2021/08/27 11:34:00;;;;;;;58.10;2.30;;;18.00;1.00;;;;;;5073640;28;20582;-70
2021/08/27 11:36:35;;;;;;;58.07;2.60;;;18.00;1.00;;;;;;5073611;28;20447;-70
2021/08/27 11:39:02;;;;;;;57.77;2.33;;;18.10;1.00;;;;;;5073216;28;20457;-71
2021/08/27 11:41:29;;;;;;;57.90;2.27;;;18.20;1.00;;;;;;5073405;28;20534;-70
2021/08/27 11:44:12;;;;;;;58.17;2.40;;;18.40;1.00;;;;;;5073399;28;20464;-69
2021/08/27 11:46:46;;;;;;;57.80;2.40;;;18.50;1.00;;;;;;5073411;28;20447;-69
2021/08/27 11:49:38;;;;;;;58.20;2.33;;;18.60;1.00;;;;;;5073228;28;20552;-69
2021/08/27 11:52:25;;;;;;;57.30;2.40;;;18.50;1.00;;;;;;5073370;28;20840;-69
2021/08/27 11:55:01;;;;;;;58.27;2.50;;;18.40;1.00;;;;;;5073488;28;20454;-69
2021/08/27 11:57:28;;;;;;;57.57;2.50;;;18.20;1.00;;;;;;5073280;28;20462;-70
2021/08/27 12:00:08;;;;;;;57.37;2.40;;;18.00;1.00;;;;;;5072851;28;20454;-69
2021/08/27 12:02:35;;;;;;;58.27;2.80;;;17.80;1.00;;;;;;5073029;28;20493;-69
2021/08/27 12:05:04;;;;;;;58.00;2.60;;;17.60;1.00;;;;;;5072893;28;20977;-69
2021/08/27 12:07:39;;;;;;;58.20;2.50;;;17.40;1.00;;;;;;5073209;28;20496;-69
2021/08/27 12:10:09;;;;;;;58.00;2.67;;;17.20;1.00;;;;;;5072575;28;20552;-70
2021/08/27 12:12:38;;;;;;;58.17;2.60;;;17.20;1.00;;;;;;5073164;28;20466;-70
2021/08/27 12:15:07;;;;;;;58.13;2.37;;;17.30;1.00;;;;;;5073107;28;20830;-71
2021/08/27 12:17:34;;;;;;;58.00;2.70;;;17.40;1.00;;;;;;5072739;28;21043;-70
2021/08/27 12:20:03;;;;;;;58.27;3.07;;;17.60;1.00;;;;;;5072516;28;20468;-70
2021/08/27 12:22:37;;;;;;;57.97;2.40;;;17.80;1.00;;;;;;5072303;28;20895;-71
2021/08/27 12:25:05;;;;;;;57.67;2.60;;;18.10;1.00;;;;;;5072918;28;20461;-71
2021/08/27 12:27:31;;;;;;;57.97;2.10;;;18.30;1.00;;;;;;5072678;28;20443;-70
2021/08/27 12:30:09;;;;;;;57.90;2.30;;;18.50;1.00;;;;;;5072313;28;20446;-70
2021/08/27 12:32:37;;;;;;;57.00;2.70;;;18.90;1.00;;;;;;5072446;28;20474;-71
2021/08/27 12:35:07;;;;;;;58.17;2.57;;;19.40;1.00;;;;;;5072432;28;20454;-71
2021/08/27 12:37:36;;;;;;;58.03;2.30;;;19.90;1.00;;;;;;5072422;28;20443;-70
2021/08/27 12:40:07;;;;;;;57.17;2.40;;;20.10;1.00;;;;;;5072338;28;20891;-71
2021/08/27 12:42:34;;;;;;;57.53;2.40;;;20.40;1.00;;;;;;5072366;28;20547;-70
2021/08/27 12:45:04;;;;;;;57.60;2.37;;;20.80;1.00;;;;;;5072743;28;20828;-70
2021/08/27 12:47:33;;;;;;;58.00;2.60;;;21.10;1.00;;;;;;5072235;28;20545;-70
2021/08/27 12:50:01;;;;;;;57.67;2.40;;;21.50;1.00;;;;;;5071400;28;20536;-71
2021/08/27 12:52:29;;;;;;;57.97;2.50;;;22.20;1.00;;;;;;5072292;28;20498;-71
2021/08/27 12:54:57;;;;;;;58.10;2.50;;;23.20;1.00;;;;;;5072448;28;20477;-70
2021/08/27 12:57:24;;;;;;;57.67;2.17;;;24.20;1.00;;;;;;5072076;28;20869;-70
2021/08/27 12:59:55;;;;;;;57.97;2.73;;;25.30;1.00;;;;;;5071750;28;20860;-71